createdAt,value
2019-06-10T00:00:21.218Z,0.00
2019-06-10T00:01:21.342Z,0.00
2019-06-10T00:02:21.275Z,0.00
2019-06-10T00:03:20.660Z,0.00
2019-06-10T00:04:21.934Z,0.00
2019-06-10T00:05:21.473Z,0.00
2019-06-10T00:06:20.989Z,0.00
2019-06-10T00:07:20.986Z,0.00
2019-06-10T00:08:20.881Z,0.00
2019-06-10T00:09:21.081Z,0.00
2019-06-10T00:10:21.339Z,0.00
2019-06-10T00:11:21.204Z,0.00
2019-06-10T00:12:20.989Z,0.00
2019-06-10T00:13:20.971Z,0.00
2019-06-10T00:14:21.050Z,0.00
2019-06-10T00:15:21.213Z,0.00
2019-06-10T00:16:20.890Z,0.00
2019-06-10T00:17:21.214Z,0.00
2019-06-10T00:18:35.481Z,0.00
2019-06-10T00:19:21.621Z,0.00
2019-06-10T00:20:18.872Z,0.00
2019-06-10T00:21:18.872Z,0.00
2019-06-10T00:22:21.394Z,0.00
2019-06-10T00:23:21.038Z,0.00
2019-06-10T00:24:21.051Z,0.00
2019-06-10T00:25:20.874Z,0.00
2019-06-10T00:26:21.468Z,0.00
2019-06-10T00:27:18.792Z,0.00
2019-06-10T00:28:18.793Z,0.00
2019-06-10T00:29:18.762Z,0.00
2019-06-10T00:30:20.823Z,0.00
2019-06-10T00:31:20.776Z,0.00
2019-06-10T00:32:21.314Z,0.00
2019-06-10T00:33:18.746Z,0.00
2019-06-10T00:34:20.773Z,0.00
2019-06-10T00:35:20.966Z,0.00
2019-06-10T00:36:18.684Z,0.00
2019-06-10T00:37:21.120Z,0.00
2019-06-10T00:38:21.221Z,0.00
2019-06-10T00:39:18.670Z,0.00
2019-06-10T00:40:21.308Z,0.00
2019-06-10T00:41:18.666Z,0.00
2019-06-10T00:42:21.167Z,0.00
2019-06-10T00:43:18.617Z,0.00
2019-06-10T00:44:20.598Z,0.00
2019-06-10T00:45:21.401Z,0.00
2019-06-10T00:46:21.059Z,0.00
2019-06-10T00:47:18.568Z,0.00
2019-06-10T00:48:28.315Z,0.00
2019-06-10T00:49:21.342Z,0.00
2019-06-10T00:50:18.534Z,0.00
2019-06-10T00:51:20.785Z,0.00
2019-06-10T00:52:18.513Z,0.00
2019-06-10T00:53:20.940Z,0.00
2019-06-10T00:54:18.489Z,0.00
2019-06-10T00:55:21.038Z,0.00
2019-06-10T00:56:18.476Z,0.00
2019-06-10T00:57:20.758Z,0.00
2019-06-10T00:58:18.440Z,0.00
2019-06-10T00:59:18.429Z,0.00
2019-06-10T01:00:25.617Z,0.00
2019-06-10T01:01:21.762Z,0.00
2019-06-10T01:02:18.410Z,0.00
2019-06-10T01:03:20.757Z,0.00
2019-06-10T01:04:18.372Z,0.00
2019-06-10T01:05:20.620Z,0.00
2019-06-10T01:06:18.365Z,0.00
2019-06-10T01:07:18.336Z,0.00
2019-06-10T01:08:18.350Z,0.00
2019-06-10T01:09:18.321Z,0.00
2019-06-10T01:10:18.324Z,0.00
2019-06-10T01:11:21.272Z,0.00
2019-06-10T01:12:21.146Z,0.00
2019-06-10T01:13:20.630Z,0.00
2019-06-10T01:14:18.254Z,0.00
2019-06-10T01:15:18.248Z,0.00
2019-06-10T01:16:18.248Z,0.00
2019-06-10T01:17:18.232Z,0.00
2019-06-10T01:18:31.951Z,0.00
2019-06-10T01:19:21.672Z,0.00
2019-06-10T01:20:18.192Z,0.00
2019-06-10T01:21:18.202Z,0.00
2019-06-10T01:22:18.168Z,0.00
2019-06-10T01:23:18.160Z,0.00
2019-06-10T01:24:18.145Z,0.00
2019-06-10T01:25:18.136Z,0.00
2019-06-10T01:26:18.374Z,0.00
2019-06-10T01:27:18.175Z,0.00
2019-06-10T01:28:18.581Z,0.00
2019-06-10T01:29:18.198Z,0.00
2019-06-10T01:30:23.932Z,0.00
2019-06-10T01:31:23.908Z,0.00
2019-06-10T01:32:21.526Z,0.00
2019-06-10T01:33:18.045Z,0.00
2019-06-10T01:34:18.419Z,0.00
2019-06-10T01:35:18.028Z,0.00
2019-06-10T01:36:18.816Z,0.00
2019-06-10T01:37:18.002Z,0.00
2019-06-10T01:38:18.403Z,0.00
2019-06-10T01:39:18.108Z,0.00
2019-06-10T01:40:18.107Z,0.00
2019-06-10T01:41:17.954Z,0.00
2019-06-10T01:42:17.937Z,0.00
2019-06-10T01:43:18.442Z,0.00
2019-06-10T01:44:17.940Z,0.00
2019-06-10T01:45:17.906Z,0.00
2019-06-10T01:46:17.902Z,0.00
2019-06-10T01:47:17.892Z,0.00
2019-06-10T01:48:17.994Z,0.00
2019-06-10T01:49:18.199Z,0.00
2019-06-10T01:50:19.514Z,0.00
2019-06-10T01:51:17.840Z,0.00
2019-06-10T01:52:18.356Z,0.00
2019-06-10T01:53:18.858Z,0.00
2019-06-10T01:54:18.444Z,0.00
2019-06-10T01:55:18.259Z,0.00
2019-06-10T01:56:18.632Z,0.00
2019-06-10T01:57:18.672Z,0.00
2019-06-10T01:58:20.988Z,0.00
2019-06-10T01:59:19.303Z,0.00
2019-06-10T02:00:22.707Z,0.00
2019-06-10T02:01:22.810Z,0.00
2019-06-10T02:02:19.056Z,0.00
2019-06-10T02:03:18.934Z,0.00
2019-06-10T02:04:19.301Z,0.00
2019-06-10T02:05:19.595Z,0.00
2019-06-10T02:06:20.508Z,0.00
2019-06-10T02:07:20.429Z,0.00
2019-06-10T02:08:18.085Z,0.00
2019-06-10T02:09:18.785Z,0.00
2019-06-10T02:10:19.049Z,0.00
2019-06-10T02:11:18.946Z,0.00
2019-06-10T02:12:20.159Z,0.00
2019-06-10T02:13:21.621Z,0.00
2019-06-10T02:14:19.333Z,0.00
2019-06-10T02:15:18.463Z,0.00
2019-06-10T02:16:19.018Z,0.00
2019-06-10T02:17:18.828Z,0.00
2019-06-10T02:18:18.053Z,0.00
2019-06-10T02:19:18.682Z,0.00
2019-06-10T02:20:19.374Z,0.00
2019-06-10T02:21:18.323Z,0.00
2019-06-10T02:22:18.525Z,0.00
2019-06-10T02:23:18.640Z,0.00
2019-06-10T02:24:17.944Z,0.00
2019-06-10T02:25:17.715Z,0.00
2019-06-10T02:26:18.265Z,0.00
2019-06-10T02:27:17.499Z,0.00
2019-06-10T02:28:17.484Z,0.00
2019-06-10T02:29:17.412Z,0.00
2019-06-10T02:30:30.065Z,0.00
2019-06-10T02:31:22.838Z,0.00
2019-06-10T02:32:24.667Z,0.00
2019-06-10T02:33:22.777Z,0.00
2019-06-10T02:34:25.043Z,0.00
2019-06-10T02:35:32.249Z,0.00
2019-06-10T02:36:25.606Z,0.00
2019-06-10T02:37:22.510Z,0.00
2019-06-10T02:38:26.307Z,0.00
2019-06-10T02:39:25.890Z,0.00
2019-06-10T02:40:24.520Z,0.00
2019-06-10T02:41:22.177Z,0.00
2019-06-10T02:42:21.630Z,0.00
2019-06-10T02:43:22.440Z,0.00
2019-06-10T02:44:22.906Z,0.00
2019-06-10T02:45:22.788Z,0.00
2019-06-10T02:46:23.432Z,0.00
2019-06-10T02:47:21.347Z,0.00
2019-06-10T02:48:21.503Z,4.00
2019-06-10T02:49:35.593Z,4.00
2019-06-10T02:50:22.450Z,0.00
2019-06-10T02:51:22.083Z,0.00
2019-06-10T02:52:22.396Z,0.00
2019-06-10T02:53:19.749Z,0.00
2019-06-10T02:54:20.231Z,4.00
2019-06-10T02:55:20.314Z,4.00
2019-06-10T02:56:19.972Z,0.00
2019-06-10T02:57:18.737Z,0.00
2019-06-10T02:58:19.129Z,4.00
2019-06-10T02:59:18.221Z,4.00
2019-06-10T03:00:23.405Z,0.00
2019-06-10T03:01:21.084Z,4.00
2019-06-10T03:02:18.245Z,4.00
2019-06-10T03:03:22.868Z,4.00
2019-06-10T03:04:18.858Z,4.00
2019-06-10T03:05:19.423Z,8.00
2019-06-10T03:06:19.827Z,4.00
2019-06-10T03:07:18.030Z,8.00
2019-06-10T03:08:18.431Z,8.00
2019-06-10T03:09:18.398Z,4.00
2019-06-10T03:10:19.145Z,4.00
2019-06-10T03:11:19.229Z,4.00
2019-06-10T03:12:17.637Z,8.00
2019-06-10T03:13:17.625Z,4.00
2019-06-10T03:14:17.740Z,8.00
2019-06-10T03:15:17.901Z,4.00
2019-06-10T03:16:17.802Z,8.00
2019-06-10T03:17:17.768Z,8.00
2019-06-10T03:18:17.814Z,12.00
2019-06-10T03:19:33.272Z,12.00
2019-06-10T03:20:17.971Z,12.00
2019-06-10T03:21:17.896Z,12.00
2019-06-10T03:22:17.913Z,12.00
2019-06-10T03:23:17.934Z,16.00
2019-06-10T03:24:17.050Z,16.00
2019-06-10T03:25:16.790Z,16.00
2019-06-10T03:26:17.242Z,20.00
2019-06-10T03:27:16.761Z,20.00
2019-06-10T03:28:17.436Z,20.00
2019-06-10T03:29:16.739Z,24.00
2019-06-10T03:30:23.736Z,20.00
2019-06-10T03:31:18.802Z,20.00
2019-06-10T03:32:19.562Z,20.00
2019-06-10T03:33:19.743Z,24.00
2019-06-10T03:34:18.169Z,24.00
2019-06-10T03:35:17.375Z,24.00
2019-06-10T03:36:16.660Z,24.00
2019-06-10T03:37:16.664Z,20.00
2019-06-10T03:38:16.642Z,24.00
2019-06-10T03:39:16.626Z,20.00
2019-06-10T03:40:16.629Z,20.00
2019-06-10T03:41:16.615Z,20.00
2019-06-10T03:42:16.785Z,24.00
2019-06-10T03:43:16.741Z,24.00
2019-06-10T03:44:16.928Z,24.00
2019-06-10T03:45:17.459Z,24.00
2019-06-10T03:46:17.229Z,28.00
2019-06-10T03:47:17.061Z,28.00
2019-06-10T03:48:17.096Z,28.00
2019-06-10T03:49:17.134Z,32.00
2019-06-10T03:50:17.175Z,32.00
2019-06-10T03:51:17.193Z,36.00
2019-06-10T03:52:17.115Z,40.00
2019-06-10T03:53:17.288Z,40.00
2019-06-10T03:54:17.173Z,36.00
2019-06-10T03:55:17.278Z,40.00
2019-06-10T03:56:17.166Z,36.00
2019-06-10T03:57:17.153Z,36.00
2019-06-10T03:58:17.442Z,36.00
2019-06-10T03:59:17.188Z,36.00
2019-06-10T04:00:17.511Z,36.00
2019-06-10T04:01:17.381Z,36.00
2019-06-10T04:02:17.302Z,36.00
2019-06-10T04:03:17.333Z,32.00
2019-06-10T04:04:17.367Z,36.00
2019-06-10T04:05:17.488Z,40.00
2019-06-10T04:06:17.444Z,44.00
2019-06-10T04:07:18.007Z,44.00
2019-06-10T04:08:17.413Z,40.00
2019-06-10T04:09:17.379Z,40.00
2019-06-10T04:10:17.461Z,40.00
2019-06-10T04:11:17.409Z,48.00
2019-06-10T04:12:17.466Z,48.00
2019-06-10T04:13:17.283Z,48.00
2019-06-10T04:14:17.496Z,56.00
2019-06-10T04:15:17.522Z,60.00
2019-06-10T04:16:17.379Z,64.00
2019-06-10T04:17:17.499Z,68.00
2019-06-10T04:18:17.705Z,72.00
2019-06-10T04:19:16.181Z,76.00
2019-06-10T04:20:16.174Z,88.00
2019-06-10T04:21:16.177Z,92.00
2019-06-10T04:22:16.141Z,96.00
2019-06-10T04:23:16.134Z,100.00
2019-06-10T04:24:16.123Z,104.00
2019-06-10T04:25:16.115Z,108.00
2019-06-10T04:26:16.103Z,108.00
2019-06-10T04:27:16.101Z,104.00
2019-06-10T04:28:16.080Z,104.00
2019-06-10T04:29:16.071Z,108.00
2019-06-10T04:30:16.700Z,104.00
2019-06-10T04:31:16.047Z,100.00
2019-06-10T04:32:16.046Z,92.00
2019-06-10T04:33:16.027Z,84.00
2019-06-10T04:34:16.014Z,72.00
2019-06-10T04:35:15.995Z,64.00
2019-06-10T04:36:16.021Z,56.00
2019-06-10T04:37:15.995Z,48.00
2019-06-10T04:38:15.986Z,44.00
2019-06-10T04:39:15.954Z,44.00
2019-06-10T04:40:15.947Z,40.00
2019-06-10T04:41:15.934Z,44.00
2019-06-10T04:42:15.924Z,48.00
2019-06-10T04:43:15.914Z,52.00
2019-06-10T04:44:15.906Z,56.00
2019-06-10T04:45:15.881Z,68.00
2019-06-10T04:46:15.875Z,76.00
2019-06-10T04:47:15.868Z,76.00
2019-06-10T04:48:15.870Z,80.00
2019-06-10T04:49:15.866Z,84.00
2019-06-10T04:50:26.089Z,84.00
2019-06-10T04:51:16.816Z,88.00
2019-06-10T04:52:15.803Z,88.00
2019-06-10T04:53:15.793Z,92.00
2019-06-10T04:54:15.799Z,100.00
2019-06-10T04:55:15.798Z,104.00
2019-06-10T04:56:15.758Z,112.00
2019-06-10T04:57:15.747Z,120.00
2019-06-10T04:58:15.736Z,124.00
2019-06-10T04:59:15.724Z,124.00
2019-06-10T05:00:15.724Z,128.00
2019-06-10T05:01:15.732Z,124.00
2019-06-10T05:02:15.691Z,120.00
2019-06-10T05:03:15.679Z,112.00
2019-06-10T05:04:15.670Z,108.00
2019-06-10T05:05:15.660Z,104.00
2019-06-10T05:06:15.647Z,108.00
2019-06-10T05:07:15.651Z,108.00
2019-06-10T05:08:15.628Z,116.00
2019-06-10T05:09:15.625Z,116.00
2019-06-10T05:10:15.600Z,120.00
2019-06-10T05:11:15.600Z,120.00
2019-06-10T05:12:15.591Z,124.00
2019-06-10T05:13:15.567Z,124.00
2019-06-10T05:14:15.557Z,128.00
2019-06-10T05:15:15.555Z,128.00
2019-06-10T05:16:15.576Z,132.00
2019-06-10T05:17:15.529Z,140.00
2019-06-10T05:18:15.513Z,144.00
2019-06-10T05:19:15.502Z,148.00
2019-06-10T05:20:15.488Z,152.00
2019-06-10T05:21:15.475Z,160.00
2019-06-10T05:22:15.483Z,160.00
2019-06-10T05:23:15.465Z,160.00
2019-06-10T05:24:15.446Z,156.00
2019-06-10T05:25:15.439Z,168.00
2019-06-10T05:26:15.436Z,172.00
2019-06-10T05:27:15.411Z,184.00
2019-06-10T05:28:15.398Z,188.00
2019-06-10T05:29:15.393Z,184.00
2019-06-10T05:30:15.375Z,184.00
2019-06-10T05:31:15.367Z,180.00
2019-06-10T05:32:15.365Z,180.00
2019-06-10T05:33:15.340Z,200.00
2019-06-10T05:34:15.329Z,196.00
2019-06-10T05:35:15.318Z,196.00
2019-06-10T05:36:15.314Z,212.00
2019-06-10T05:37:15.313Z,220.00
2019-06-10T05:38:15.293Z,216.00
2019-06-10T05:39:15.283Z,216.00
2019-06-10T05:40:15.271Z,228.00
2019-06-10T05:41:15.255Z,248.00
2019-06-10T05:42:15.256Z,240.00
2019-06-10T05:43:15.239Z,240.00
2019-06-10T05:44:15.233Z,252.00
2019-06-10T05:45:15.208Z,264.00
2019-06-10T05:46:15.200Z,272.00
2019-06-10T05:47:15.184Z,260.00
2019-06-10T05:48:16.840Z,264.00
2019-06-10T05:49:15.183Z,284.00
2019-06-10T05:50:15.152Z,296.00
2019-06-10T05:51:15.142Z,316.00
2019-06-10T05:52:15.131Z,312.00
2019-06-10T05:53:15.126Z,308.00
2019-06-10T05:54:15.115Z,312.00
2019-06-10T05:55:15.116Z,312.00
2019-06-10T05:56:15.083Z,316.00
2019-06-10T05:57:15.071Z,316.00
2019-06-10T05:58:15.059Z,316.00
2019-06-10T05:59:15.050Z,316.00
2019-06-10T06:00:15.236Z,316.00
2019-06-10T06:01:15.060Z,308.00
2019-06-10T06:02:15.018Z,288.00
2019-06-10T06:03:15.013Z,300.00
2019-06-10T06:04:14.996Z,316.00
2019-06-10T06:05:14.984Z,316.00
2019-06-10T06:06:14.987Z,328.00
2019-06-10T06:07:14.977Z,336.00
2019-06-10T06:08:14.953Z,344.00
2019-06-10T06:09:14.936Z,344.00
2019-06-10T06:10:14.925Z,348.00
2019-06-10T06:11:14.926Z,352.00
2019-06-10T06:12:14.903Z,352.00
2019-06-10T06:13:14.891Z,348.00
2019-06-10T06:14:14.899Z,352.00
2019-06-10T06:15:14.871Z,368.00
2019-06-10T06:16:14.873Z,384.00
2019-06-10T06:17:16.817Z,392.00
2019-06-10T06:18:14.835Z,400.00
2019-06-10T06:19:14.822Z,408.00
2019-06-10T06:20:14.821Z,420.00
2019-06-10T06:21:25.229Z,424.00
2019-06-10T06:22:15.788Z,432.00
2019-06-10T06:23:14.784Z,448.00
2019-06-10T06:24:14.792Z,460.00
2019-06-10T06:25:15.663Z,468.00
2019-06-10T06:26:16.434Z,476.00
2019-06-10T06:27:14.737Z,492.00
2019-06-10T06:28:16.169Z,496.00
2019-06-10T06:29:14.716Z,512.00
2019-06-10T06:30:17.724Z,520.00
2019-06-10T06:31:14.694Z,464.00
2019-06-10T06:32:14.695Z,484.00
2019-06-10T06:33:14.672Z,544.00
2019-06-10T06:34:14.669Z,560.00
2019-06-10T06:35:14.642Z,624.00
2019-06-10T06:36:14.631Z,648.00
2019-06-10T06:37:14.647Z,848.00
2019-06-10T06:38:14.610Z,1056.00
2019-06-10T06:39:14.599Z,956.00
2019-06-10T06:40:14.592Z,1040.00
2019-06-10T06:41:14.581Z,1168.00
2019-06-10T06:42:14.570Z,1520.00
2019-06-10T06:43:14.578Z,1544.00
2019-06-10T06:44:14.556Z,1472.00
2019-06-10T06:45:14.532Z,1444.00
2019-06-10T06:46:14.521Z,1372.00
2019-06-10T06:47:14.511Z,1220.00
2019-06-10T06:48:14.495Z,1324.00
2019-06-10T06:49:14.496Z,1260.00
2019-06-10T06:50:14.476Z,1248.00
2019-06-10T06:51:14.465Z,1212.00
2019-06-10T06:52:14.450Z,1316.00
2019-06-10T06:53:27.863Z,1104.00
2019-06-10T06:54:15.444Z,1328.00
2019-06-10T06:55:14.418Z,968.00
2019-06-10T06:56:14.413Z,980.00
2019-06-10T06:57:14.394Z,1164.00
2019-06-10T06:58:14.383Z,1004.00
2019-06-10T06:59:14.378Z,988.00
2019-06-10T07:00:35.221Z,936.00
2019-06-10T07:01:15.355Z,920.00
2019-06-10T07:02:14.348Z,896.00
2019-06-10T07:03:14.333Z,864.00
2019-06-10T07:04:14.330Z,864.00
2019-06-10T07:05:14.315Z,900.00
2019-06-10T07:06:14.312Z,936.00
2019-06-10T07:07:14.284Z,924.00
2019-06-10T07:08:14.270Z,992.00
2019-06-10T07:09:14.260Z,1016.00
2019-06-10T07:10:14.263Z,1080.00
2019-06-10T07:11:14.248Z,1168.00
2019-06-10T07:12:14.247Z,1280.00
2019-06-10T07:13:14.217Z,1244.00
2019-06-10T07:14:14.201Z,1120.00
2019-06-10T07:15:14.192Z,1220.00
2019-06-10T07:16:14.190Z,1076.00
2019-06-10T07:17:14.174Z,1080.00
2019-06-10T07:18:14.179Z,1096.00
2019-06-10T07:19:14.156Z,904.00
2019-06-10T07:20:14.135Z,904.00
2019-06-10T07:21:14.129Z,1380.00
2019-06-10T07:22:16.265Z,1104.00
2019-06-10T07:23:14.100Z,1096.00
2019-06-10T07:24:14.100Z,796.00
2019-06-10T07:25:14.094Z,872.00
2019-06-10T07:26:14.073Z,812.00
2019-06-10T07:27:14.072Z,756.00
2019-06-10T07:28:14.045Z,708.00
2019-06-10T07:29:14.045Z,732.00
2019-06-10T07:30:15.213Z,696.00
2019-06-10T07:31:23.634Z,644.00
2019-06-10T07:32:14.998Z,628.00
2019-06-10T07:33:14.008Z,668.00
2019-06-10T07:34:13.977Z,720.00
2019-06-10T07:35:13.966Z,840.00
2019-06-10T07:36:13.980Z,1080.00
2019-06-10T07:37:13.943Z,884.00
2019-06-10T07:38:13.930Z,920.00
2019-06-10T07:39:13.944Z,1032.00
2019-06-10T07:40:13.914Z,1044.00
2019-06-10T07:41:13.897Z,1320.00
2019-06-10T07:42:13.886Z,1072.00
2019-06-10T07:43:13.875Z,1152.00
2019-06-10T07:44:13.863Z,1020.00
2019-06-10T07:45:13.866Z,1316.00
2019-06-10T07:46:13.857Z,1272.00
2019-06-10T07:47:13.840Z,1172.00
2019-06-10T07:48:13.819Z,1232.00
2019-06-10T07:49:13.809Z,1292.00
2019-06-10T07:50:13.817Z,1360.00
2019-06-10T07:51:13.784Z,1376.00
2019-06-10T07:52:19.500Z,1768.00
2019-06-10T07:53:14.767Z,1732.00
2019-06-10T07:54:13.757Z,1320.00
2019-06-10T07:55:13.749Z,1432.00
2019-06-10T07:56:13.746Z,1640.00
2019-06-10T07:57:13.717Z,1516.00
2019-06-10T07:58:13.705Z,1480.00
2019-06-10T07:59:13.694Z,1200.00
2019-06-10T08:00:13.682Z,1144.00
2019-06-10T08:01:13.691Z,1084.00
2019-06-10T08:02:13.675Z,1024.00
2019-06-10T08:03:13.649Z,1036.00
2019-06-10T08:04:13.650Z,1140.00
2019-06-10T08:05:13.629Z,1232.00
2019-06-10T08:06:13.617Z,1328.00
2019-06-10T08:07:13.606Z,1812.00
2019-06-10T08:08:13.608Z,1788.00
2019-06-10T08:09:13.582Z,1392.00
2019-06-10T08:10:13.571Z,1236.00
2019-06-10T08:11:14.187Z,1232.00
2019-06-10T08:12:13.553Z,1276.00
2019-06-10T08:13:13.553Z,1348.00
2019-06-10T08:14:13.539Z,1396.00
2019-06-10T08:15:13.519Z,1412.00
2019-06-10T08:16:13.511Z,1480.00
2019-06-10T08:17:13.493Z,1700.00
2019-06-10T08:18:13.481Z,1624.00
2019-06-10T08:19:30.282Z,1712.00
2019-06-10T08:20:14.457Z,2188.00
2019-06-10T08:21:13.448Z,1864.00
2019-06-10T08:22:29.936Z,1960.00
2019-06-10T08:23:14.430Z,1964.00
2019-06-10T08:24:13.433Z,2308.00
2019-06-10T08:25:13.424Z,2696.00
2019-06-10T08:26:13.413Z,2716.00
2019-06-10T08:27:13.400Z,2756.00
2019-06-10T08:28:13.563Z,2728.00
2019-06-10T08:29:13.369Z,2648.00
2019-06-10T08:30:22.309Z,2640.00
2019-06-10T08:31:14.356Z,2696.00
2019-06-10T08:32:13.405Z,2716.00
2019-06-10T08:33:13.763Z,2368.00
2019-06-10T08:34:13.563Z,2632.00
2019-06-10T08:35:13.293Z,2744.00
2019-06-10T08:36:13.695Z,3048.00
2019-06-10T08:37:13.738Z,2952.00
2019-06-10T08:38:13.265Z,3088.00
2019-06-10T08:39:15.983Z,2988.00
2019-06-10T08:40:13.243Z,2428.00
2019-06-10T08:41:13.224Z,2536.00
2019-06-10T08:42:13.226Z,2240.00
2019-06-10T08:43:13.415Z,1580.00
2019-06-10T08:44:13.197Z,2392.00
2019-06-10T08:45:13.190Z,2488.00
2019-06-10T08:46:13.396Z,2440.00
2019-06-10T08:47:13.157Z,2272.00
2019-06-10T08:48:13.372Z,2140.00
2019-06-10T08:49:13.137Z,1904.00
2019-06-10T08:50:13.122Z,1792.00
2019-06-10T08:51:13.132Z,1900.00
2019-06-10T08:52:13.101Z,2176.00
2019-06-10T08:53:15.537Z,1796.00
2019-06-10T08:54:13.095Z,1612.00
2019-06-10T08:55:13.069Z,1552.00
2019-06-10T08:56:13.303Z,1392.00
2019-06-10T08:57:13.053Z,1424.00
2019-06-10T08:58:13.037Z,1376.00
2019-06-10T08:59:13.023Z,1448.00
2019-06-10T09:00:15.163Z,1492.00
2019-06-10T09:01:13.485Z,1352.00
2019-06-10T09:02:12.990Z,1324.00
2019-06-10T09:03:12.984Z,1272.00
2019-06-10T09:04:13.440Z,1300.00
2019-06-10T09:05:12.956Z,1696.00
2019-06-10T09:06:13.459Z,2068.00
2019-06-10T09:07:12.952Z,2172.00
2019-06-10T09:08:13.147Z,2408.00
2019-06-10T09:09:13.077Z,1668.00
2019-06-10T09:10:13.533Z,2592.00
2019-06-10T09:11:13.242Z,3176.00
2019-06-10T09:12:28.690Z,2808.00
2019-06-10T09:13:13.867Z,2452.00
2019-06-10T09:14:12.856Z,1480.00
2019-06-10T09:15:13.082Z,1812.00
2019-06-10T09:16:19.162Z,1484.00
2019-06-10T09:17:13.841Z,1884.00
2019-06-10T09:18:14.951Z,2104.00
2019-06-10T09:19:13.285Z,2160.00
2019-06-10T09:20:13.062Z,1828.00
2019-06-10T09:21:12.984Z,1724.00
2019-06-10T09:22:12.774Z,1516.00
2019-06-10T09:23:21.041Z,1404.00
2019-06-10T09:24:13.764Z,1592.00
2019-06-10T09:25:12.739Z,1516.00
2019-06-10T09:26:12.760Z,1520.00
2019-06-10T09:27:13.467Z,1420.00
2019-06-10T09:28:12.884Z,1356.00
2019-06-10T09:29:13.465Z,1416.00
2019-06-10T09:30:13.504Z,1504.00
2019-06-10T09:31:14.128Z,1452.00
2019-06-10T09:32:12.659Z,1704.00
2019-06-10T09:33:13.044Z,1820.00
2019-06-10T09:34:12.904Z,3008.00
2019-06-10T09:35:12.783Z,2516.00
2019-06-10T09:36:12.707Z,2548.00
2019-06-10T09:37:12.613Z,1568.00
2019-06-10T09:38:14.177Z,2424.00
2019-06-10T09:39:13.127Z,2052.00
2019-06-10T09:40:12.586Z,1740.00
2019-06-10T09:41:14.130Z,2756.00
2019-06-10T09:42:14.399Z,3512.00
2019-06-10T09:43:12.945Z,2668.00
2019-06-10T09:44:13.055Z,1604.00
2019-06-10T09:45:12.944Z,2176.00
2019-06-10T09:46:12.735Z,1820.00
2019-06-10T09:47:14.315Z,1816.00
2019-06-10T09:48:13.268Z,2012.00
2019-06-10T09:49:12.761Z,1856.00
2019-06-10T09:50:12.457Z,2924.00
2019-06-10T09:51:12.547Z,2980.00
2019-06-10T09:52:13.544Z,2676.00
2019-06-10T09:53:16.671Z,2532.00
2019-06-10T09:54:13.418Z,2968.00
2019-06-10T09:55:12.881Z,2676.00
2019-06-10T09:56:12.625Z,2108.00
2019-06-10T09:57:12.744Z,2220.00
2019-06-10T09:58:12.420Z,2332.00
2019-06-10T09:59:12.590Z,2284.00
2019-06-10T10:00:12.603Z,1816.00
2019-06-10T10:01:13.395Z,1728.00
2019-06-10T10:02:12.627Z,1788.00
2019-06-10T10:03:12.494Z,2908.00
2019-06-10T10:04:12.553Z,3588.00
2019-06-10T10:05:12.304Z,3024.00
2019-06-10T10:06:15.632Z,2556.00
2019-06-10T10:07:12.314Z,2996.00
2019-06-10T10:08:12.837Z,3020.00
2019-06-10T10:09:12.246Z,3000.00
2019-06-10T10:10:12.910Z,3120.00
2019-06-10T10:11:12.936Z,3664.00
2019-06-10T10:12:12.347Z,2952.00
2019-06-10T10:13:13.061Z,3268.00
2019-06-10T10:14:15.829Z,3328.00
2019-06-10T10:15:26.591Z,3336.00
2019-06-10T10:16:13.342Z,3192.00
2019-06-10T10:17:12.832Z,3184.00
2019-06-10T10:18:13.452Z,2936.00
2019-06-10T10:19:13.103Z,2904.00
2019-06-10T10:20:12.349Z,3232.00
2019-06-10T10:21:13.112Z,2736.00
2019-06-10T10:22:13.984Z,2012.00
2019-06-10T10:23:13.663Z,1940.00
2019-06-10T10:24:14.895Z,1624.00
2019-06-10T10:25:14.416Z,1924.00
2019-06-10T10:26:13.052Z,2432.00
2019-06-10T10:27:13.462Z,2568.00
2019-06-10T10:28:13.410Z,2768.00
2019-06-10T10:29:13.082Z,2712.00
2019-06-10T10:30:13.530Z,2644.00
2019-06-10T10:31:13.107Z,2532.00
2019-06-10T10:32:13.195Z,2156.00
2019-06-10T10:33:12.877Z,1844.00
2019-06-10T10:34:13.479Z,1636.00
2019-06-10T10:35:12.628Z,1564.00
2019-06-10T10:36:14.041Z,1656.00
2019-06-10T10:37:12.438Z,2332.00
2019-06-10T10:38:14.359Z,2352.00
2019-06-10T10:39:13.978Z,2076.00
2019-06-10T10:40:12.382Z,1936.00
2019-06-10T10:41:13.311Z,1724.00
2019-06-10T10:42:12.637Z,2132.00
2019-06-10T10:43:25.147Z,2276.00
2019-06-10T10:44:13.845Z,1716.00
2019-06-10T10:45:13.280Z,1744.00
2019-06-10T10:46:13.867Z,1700.00
2019-06-10T10:47:12.468Z,1724.00
2019-06-10T10:48:13.723Z,2216.00
2019-06-10T10:49:13.330Z,2212.00
2019-06-10T10:50:13.980Z,2392.00
2019-06-10T10:51:13.197Z,1640.00
2019-06-10T10:52:12.935Z,2628.00
2019-06-10T10:53:12.857Z,3128.00
2019-06-10T10:54:22.512Z,2764.00
2019-06-10T10:55:13.132Z,3120.00
2019-06-10T10:56:12.858Z,2556.00
2019-06-10T10:57:13.167Z,2636.00
2019-06-10T10:58:12.894Z,2380.00
2019-06-10T10:59:12.834Z,2720.00
2019-06-10T11:00:12.406Z,2732.00
2019-06-10T11:01:15.139Z,2356.00
2019-06-10T11:02:12.668Z,2252.00
2019-06-10T11:03:13.394Z,2208.00
2019-06-10T11:04:13.259Z,1680.00
2019-06-10T11:05:12.825Z,1664.00
2019-06-10T11:06:12.864Z,1636.00
2019-06-10T11:07:12.963Z,1936.00
2019-06-10T11:08:13.580Z,2272.00
2019-06-10T11:09:13.020Z,2216.00
2019-06-10T11:10:12.659Z,2040.00
2019-06-10T11:11:13.524Z,2380.00
2019-06-10T11:12:11.546Z,2196.00
2019-06-10T11:13:11.543Z,1500.00
2019-06-10T11:14:15.066Z,1988.00
2019-06-10T11:15:13.669Z,2476.00
2019-06-10T11:16:11.496Z,2732.00
2019-06-10T11:17:11.487Z,2740.00
2019-06-10T11:18:12.670Z,2744.00
2019-06-10T11:19:12.967Z,2696.00
2019-06-10T11:20:13.640Z,2744.00
2019-06-10T11:21:13.234Z,2676.00
2019-06-10T11:22:12.630Z,2416.00
2019-06-10T11:23:12.361Z,2452.00
2019-06-10T11:24:14.260Z,2036.00
2019-06-10T11:25:12.549Z,2264.00
2019-06-10T11:26:12.469Z,2008.00
2019-06-10T11:27:12.724Z,2452.00
2019-06-10T11:28:11.366Z,2748.00
2019-06-10T11:29:11.347Z,2892.00
2019-06-10T11:30:12.372Z,2536.00
2019-06-10T11:31:13.872Z,2796.00
2019-06-10T11:32:11.316Z,2680.00
2019-06-10T11:33:11.319Z,2540.00
2019-06-10T11:34:11.633Z,2676.00
2019-06-10T11:35:12.169Z,2464.00
2019-06-10T11:36:13.484Z,2068.00
2019-06-10T11:37:12.677Z,1988.00
2019-06-10T11:38:12.861Z,2180.00
2019-06-10T11:39:13.342Z,2268.00
2019-06-10T11:40:13.567Z,2440.00
2019-06-10T11:41:13.390Z,2120.00
2019-06-10T11:42:13.227Z,2092.00
2019-06-10T11:43:13.066Z,1608.00
2019-06-10T11:44:11.180Z,1932.00
2019-06-10T11:45:11.638Z,1844.00
2019-06-10T11:46:13.734Z,1876.00
2019-06-10T11:47:13.148Z,1968.00
2019-06-10T11:48:12.943Z,1996.00
2019-06-10T11:49:12.576Z,1996.00
2019-06-10T11:50:12.139Z,1996.00
2019-06-10T11:51:12.946Z,1948.00
2019-06-10T11:52:12.592Z,2044.00
2019-06-10T11:53:12.830Z,2020.00
2019-06-10T11:54:12.893Z,2036.00
2019-06-10T11:55:16.551Z,2048.00
2019-06-10T11:56:13.071Z,1976.00
2019-06-10T11:57:12.527Z,1876.00
2019-06-10T11:58:11.030Z,2092.00
2019-06-10T11:59:13.371Z,2080.00
2019-06-10T12:00:14.849Z,1864.00
2019-06-10T12:01:13.162Z,2088.00
2019-06-10T12:02:13.264Z,1908.00
2019-06-10T12:03:13.043Z,1800.00
2019-06-10T12:04:12.864Z,1832.00
2019-06-10T12:05:13.008Z,1740.00
2019-06-10T12:06:13.308Z,1504.00
2019-06-10T12:07:12.836Z,1960.00
2019-06-10T12:08:13.052Z,1908.00
2019-06-10T12:09:13.528Z,2060.00
2019-06-10T12:10:12.857Z,1860.00
2019-06-10T12:11:12.608Z,1912.00
2019-06-10T12:12:12.937Z,1900.00
2019-06-10T12:13:13.229Z,1824.00
2019-06-10T12:14:12.916Z,1752.00
2019-06-10T12:15:12.132Z,1884.00
2019-06-10T12:17:05.780Z,1876.00
2019-06-10T12:17:24.899Z,1860.00
2019-06-10T12:18:13.143Z,1568.00
2019-06-10T12:19:12.713Z,1496.00
2019-06-10T12:20:13.224Z,1236.00
2019-06-10T12:21:13.215Z,1256.00
2019-06-10T12:22:13.210Z,1632.00
2019-06-10T12:23:12.653Z,1488.00
2019-06-10T12:24:12.641Z,1668.00
2019-06-10T12:25:31.556Z,1764.00
2019-06-10T12:26:11.798Z,1904.00
2019-06-10T12:27:12.965Z,2124.00
2019-06-10T12:28:12.868Z,2148.00
2019-06-10T12:29:12.419Z,1872.00
2019-06-10T12:30:13.072Z,1740.00
2019-06-10T12:31:13.427Z,1996.00
2019-06-10T12:32:13.359Z,2040.00
2019-06-10T12:33:20.026Z,1984.00